M I D A S
Marine Information and Data Acquisition System
Tripno 2215 of the Zeeleeuw from 2011-11-18 06:19:57 to 2011-11-18 14:05:12
Back to CruiseResearch ActivitiesStationsMapUnderway DataData graphs

EquipmentUnitsComment
TimeDGPSUTC
LatitudeDGPSDM.mWGS84
LongitudeDGPSDM.mWGS84
TemperatureSBE03/SBE38deg celciusITS90
ConductivitySBE21S/mITS90
SalinitySBE21 Practical Salinity Units
ChlorophylAChelsea fluorimeterg/lCalibrated in Aceton
Missing or incorrect values are displayed as -999
Sea surface data collected by the RV Zeeleeuw from 2011-11-18 06:26:42 to 2011-11-18 14:21:20
Time Latitude Longitude Temperature Conductivity Salinity ChlorophylA
2011-11-18 06:27:45 51°13.639 2°56.02 17.2378 4.560898 33.615042 -3.020363
2011-11-18 06:28:45 51°13.639 2°56.019 17.2462 4.560898 33.613782 -3.020363
2011-11-18 06:29:46 51°13.639 2°56.019 17.2488 4.563595 33.634783 -3.020363
2011-11-18 06:30:45 51°13.638 2°56.019 17.2658 4.564944 33.644653 -3.020363
2011-11-18 06:31:46 51°13.635 2°56.017 17.276 4.563803 33.633342 -3.020363
2011-11-18 06:32:45 51°13.638 2°56.018 17.2622 4.563491 33.629513 -3.020363
2011-11-18 06:33:46 51°13.636 2°56.018 17.2726 4.56318 33.625054 -3.020363
2011-11-18 06:34:45 51°13.635 2°56.011 17.2434 4.569716 33.6771 -3.020363
2011-11-18 06:35:49 51°13.651 2°55.93 17.4271 4.517324 33.244524 -3.020363
2011-11-18 06:36:49 51°13.669 2°55.886 17.2643 4.56318 33.621273 -3.020363
2011-11-18 06:37:49 51°13.707 2°55.806 17.2919 4.559134 33.587264 -3.020363
2011-11-18 06:38:49 51°13.762 2°55.719 17.29 4.551871 33.52548 -3.020363
2011-11-18 06:39:49 51°13.828 2°55.637 17.308 4.543571 33.456423 -3.020363
2011-11-18 06:40:49 51°13.902 2°55.611 17.3128 4.540666 33.431852 -3.020363
2011-11-18 06:41:49 51°13.958 2°55.65 17.3731 4.535998 33.39275 -3.020363
2011-11-18 06:42:49 51°13.977 2°55.671 11.7236 4.323074 32.762479 -3.020363
2011-11-18 06:43:47 51°14.013 2°55.561 10.6761 3.75033 32.786427 -3.020363
2011-11-18 06:44:46 51°14.096 2°55.446 10.4682 3.565998 31.596927 -3.020363
2011-11-18 06:45:48 51°14.205 2°55.364 10.3693 3.508538 31.26288 -3.020363
2011-11-18 06:46:49 51°14.322 2°55.268 10.3125 3.480483 31.081663 -3.020363
2011-11-18 06:47:48 51°14.443 2°55.146 10.2875 3.417027 30.512784 -3.020363
2011-11-18 06:48:48 51°14.574 2°54.987 10.2122 3.418684 30.563349 -3.020363
2011-11-18 06:49:47 51°14.724 2°54.82 10.2358 3.405021 30.499899 -3.020363
2011-11-18 06:50:46 51°14.884 2°54.633 10.3311 3.433383 30.74879 -3.020363
2011-11-18 06:51:45 51°15.055 2°54.448 10.5352 3.474997 31.062693 -3.020363
2011-11-18 06:52:46 51°15.218 2°54.23 10.626 3.506674 31.223319 -3.020363
2011-11-18 06:53:45 51°15.384 2°54.035 10.6663 3.542807 31.51533 -3.020363
2011-11-18 06:54:45 51°15.547 2°53.822 10.6658 3.541771 31.491443 -3.020363
2011-11-18 06:55:45 51°15.713 2°53.619 10.6698 3.546948 31.532699 -3.020363
2011-11-18 06:56:46 51°15.888 2°53.421 10.695 3.527897 31.341649 -3.020363
2011-11-18 06:57:45 51°16.068 2°53.256 10.7252 3.48752 30.924335 -3.020363
2011-11-18 06:58:45 51°16.262 2°53.119 10.7743 3.295309 29.012165 -3.020363
2011-11-18 06:59:45 51°16.449 2°52.962 10.8284 3.290755 28.933755 -3.020363
2011-11-18 07:00:46 51°16.643 2°52.81 10.8926 3.288064 28.862598 -3.020363
2011-11-18 07:01:45 51°16.834 2°52.676 10.9327 3.304207 28.974478 -3.020363
2011-11-18 07:02:45 51°17.027 2°52.531 11.0699 3.283923 28.723429 -3.020363
2011-11-18 07:03:45 51°17.216 2°52.374 11.0839 3.314036 28.930408 -3.020363
2011-11-18 07:04:45 51°17.408 2°52.224 11.0763 3.301721 28.815498 -3.020363
2011-11-18 07:05:46 51°17.599 2°52.062 11.1446 3.297996 28.764467 -3.020363
2011-11-18 07:06:46 51°17.787 2°51.9 11.1869 3.313415 28.865439 -3.020363
2011-11-18 07:07:46 51°17.975 2°51.743 11.2135 3.292613 28.638402 -3.020363
2011-11-18 07:08:46 51°18.17 2°51.607 11.244 3.286922 28.561969 -3.020363
2011-11-18 07:09:46 51°18.365 2°51.465 11.2799 3.304824 28.711157 -3.020363
2011-11-18 07:10:45 51°18.552 2°51.312 11.3087 3.328834 28.914208 -3.020363
2011-11-18 07:11:46 51°18.743 2°51.149 11.3143 3.26105 28.245139 -3.020363
2011-11-18 07:12:45 51°18.936 2°51.004 11.3044 3.268294 28.310569 -3.020363
2011-11-18 07:13:45 51°19.125 2°50.838 11.284 3.252151 28.167834 -3.020363
2011-11-18 07:14:45 51°19.321 2°50.696 11.2497 3.281126 28.461807 -3.020363
2011-11-18 07:15:44 51°19.514 2°50.554 11.2159 3.223697 27.936172 -3.020363
2011-11-18 07:16:46 51°19.711 2°50.392 11.1665 3.237873 28.099987 -3.020363
2011-11-18 07:17:46 51°19.898 2°50.232 11.1344 3.211178 27.874828 -3.020363
2011-11-18 07:18:46 51°20.094 2°50.09 11.0918 3.229078 28.074015 -3.020363
2011-11-18 07:19:45 51°20.283 2°49.948 11.0636 3.173311 27.569054 -3.020363
2011-11-18 07:20:46 51°20.496 2°49.85 11.0674 3.157586 27.43631 -3.020363
2011-11-18 07:21:44 51°20.694 2°49.75 11.112 3.178587 27.624328 -3.020363
2011-11-18 07:22:46 51°20.904 2°49.635 11.1729 3.147343 27.29453 -3.020363
2011-11-18 07:23:45 51°21.105 2°49.536 11.2076 3.198244 27.740185 -3.020363
2011-11-18 07:24:45 51°21.309 2°49.43 11.2704 3.168137 27.421755 -3.020363
2011-11-18 07:25:46 51°21.512 2°49.317 11.2458 3.159135 27.304672 -3.020363
2011-11-18 07:26:45 51°21.692 2°49.161 11.2227 3.190794 27.626241 -3.020363
2011-11-18 07:27:46 51°21.851 2°48.937 11.2201 3.155411 27.298748 -3.020363
2011-11-18 07:28:44 51°22.007 2°48.729 11.2751 3.147135 27.213192 -3.020363
2011-11-18 07:29:46 51°22.173 2°48.507 11.3778 3.147858 27.17516 -3.020363
2011-11-18 07:30:45 51°22.334 2°48.301 11.4637 3.167307 27.284862 -3.020363
2011-11-18 07:31:46 51°22.473 2°48.05 11.5144 3.129752 26.873247 -3.020363
2011-11-18 07:32:45 51°22.587 2°47.781 11.5437 3.217382 27.67243 -3.020363
2011-11-18 07:33:46 51°22.71 2°47.506 11.5566 3.127372 26.801017 -3.020363
2011-11-18 07:34:45 51°22.831 2°47.241 11.5833 3.183652 27.323024 -3.020363
2011-11-18 07:35:45 51°22.954 2°46.971 11.618 3.142993 26.917464 -3.020363
2011-11-18 07:36:46 51°23.081 2°46.699 11.6704 3.185928 27.297356 -3.020363
2011-11-18 07:37:46 51°23.209 2°46.433 11.7448 3.156027 26.97591 -3.020363
2011-11-18 07:38:46 51°23.327 2°46.158 11.8294 3.105646 26.443863 -3.020363
2011-11-18 07:39:45 51°23.442 2°45.887 11.9138 3.220897 27.473005 -3.020363
2011-11-18 07:40:46 51°23.571 2°45.613 11.9727 3.140093 26.656524 -3.020363
2011-11-18 07:41:45 51°23.697 2°45.352 12.0249 3.152404 26.734282 -3.020363
2011-11-18 07:42:45 51°23.816 2°45.08 12.0753 3.14092 26.588614 -3.020363
2011-11-18 07:43:45 51°23.934 2°44.806 12.1136 3.126953 26.425735 -3.020363
2011-11-18 07:44:44 51°24.048 2°44.537 12.1428 3.195027 27.037279 -3.020363
2011-11-18 07:45:46 51°24.18 2°44.264 12.1755 3.122401 26.337754 -3.020363
2011-11-18 07:46:46 51°24.305 2°43.999 12.2221 3.146091 26.534805 -3.020363
2011-11-18 07:47:46 51°24.414 2°43.754 12.269 3.115159 26.214265 -3.020363
2011-11-18 07:48:45 51°24.485 2°43.617 12.2885 3.147435 26.485306 -3.020363
2011-11-18 07:49:46 51°24.537 2°43.531 12.2987 3.088056 25.923306 -3.020363
2011-11-18 07:50:45 51°24.572 2°43.517 12.304 3.170816 26.684461 -3.020363
2011-11-18 07:51:46 51°24.619 2°43.547 12.3132 3.141745 26.410034 -3.020363
2011-11-18 07:52:45 51°24.644 2°43.614 12.3201 3.096227 25.97825 -3.020363
2011-11-18 07:53:46 51°24.653 2°43.668 12.3233 3.091572 25.931572 -3.020363
2011-11-18 07:54:46 51°24.667 2°43.706 12.3251 3.174333 26.697016 -3.020363
2011-11-18 07:55:46 51°24.687 2°43.721 12.3242 3.159435 26.557374 -3.020363
2011-11-18 07:56:46 51°24.706 2°43.734 12.3279 3.16947 26.651215 -3.020363
2011-11-18 07:57:45 51°24.729 2°43.749 12.3276 3.142882 26.403084 -3.020363
2011-11-18 07:58:45 51°24.739 2°43.802 12.329 3.106261 26.062291 -3.020363
2011-11-18 07:59:45 51°24.7 2°43.831 12.3322 3.113089 26.12317 -3.020363
2011-11-18 08:00:45 51°24.655 2°43.758 12.3327 3.165332 26.609112 -3.020363
2011-11-18 08:01:45 51°24.633 2°43.692 12.3308 3.107709 26.07273 -3.020363
2011-11-18 08:02:45 51°24.649 2°43.693 12.333 3.180954 26.753675 -3.020363
2011-11-18 08:03:48 51°24.665 2°43.707 12.3335 3.086607 25.878494 -3.020363
2011-11-18 08:04:46 51°24.681 2°43.718 12.3333 3.096641 25.9708 -3.020363
2011-11-18 08:05:46 51°24.691 2°43.738 12.3347 3.130675 26.28441 -3.020363
2011-11-18 08:06:45 51°24.695 2°43.755 12.3339 3.094262 25.946397 -3.020363
2011-11-18 08:07:45 51°24.706 2°43.767 12.3351 3.193887 26.86963 -3.020363
2011-11-18 08:08:45 51°24.726 2°43.773 12.3367 3.125502 26.235246 -3.020363
2011-11-18 08:09:45 51°24.755 2°43.764 12.337 3.139054 26.359727 -3.020363
2011-11-18 08:10:45 51°24.778 2°43.732 12.3361 3.139054 26.359727 -3.020363
2011-11-18 08:11:45 51°24.781 2°43.686 12.3335 3.147434 26.439894 -3.020363
2011-11-18 08:12:45 51°24.774 2°43.658 12.336 3.09571 25.961585 -3.020363
2011-11-18 08:13:44 51°24.77 2°43.649 12.3337 3.104296 26.040509 -3.020363
2011-11-18 08:14:45 51°24.77 2°43.646 12.3355 3.166367 26.615072 -3.020363
2011-11-18 08:15:44 51°24.773 2°43.648 12.334 3.089193 25.898881 -3.020363
2011-11-18 08:16:45 51°24.77 2°43.656 12.3342 3.099537 25.996436 -3.020363
2011-11-18 08:17:45 51°24.765 2°43.674 12.3309 3.112468 26.116224 -3.020363
2011-11-18 08:18:45 51°24.767 2°43.689 12.3317 3.093227 25.939191 -3.020363
2011-11-18 08:19:46 51°24.772 2°43.703 12.3336 3.163573 26.592167 -3.020363
2011-11-18 08:20:45 51°24.782 2°43.716 12.3347 3.095089 25.955245 -3.020363
2011-11-18 08:21:45 51°24.797 2°43.728 12.3355 3.082676 25.83975 -3.020363
2011-11-18 08:22:46 51°24.815 2°43.739 12.3334 3.075642 25.774669 -3.020363
2011-11-18 08:23:45 51°24.828 2°43.759 12.3335 3.140296 26.373052 -3.020363
2011-11-18 08:24:46 51°24.833 2°43.789 12.3345 3.148158 26.444802 -3.020363
2011-11-18 08:25:46 51°24.829 2°43.811 12.3373 3.097158 25.972622 -3.020363
2011-11-18 08:26:45 51°24.819 2°43.814 12.3351 3.133571 26.311275 -3.020363
2011-11-18 08:27:45 51°24.808 2°43.803 12.3373 3.096641 25.969613 -3.020363
2011-11-18 08:28:45 51°24.794 2°43.793 12.337 3.096434 25.965917 -3.020363
2011-11-18 08:29:45 51°24.777 2°43.789 12.335 3.121571 26.199402 -3.020363
2011-11-18 08:30:46 51°24.757 2°43.794 12.3352 3.003861 25.111696 -3.020363
2011-11-18 08:31:45 51°24.734 2°43.803 12.3383 3.027959 25.333448 -3.020363
2011-11-18 08:32:46 51°24.722 2°43.816 12.336 3.061885 25.645682 -3.020363
2011-11-18 08:33:45 51°24.72 2°43.825 12.3435 2.985038 24.931941 -3.020363
2011-11-18 08:34:44 51°24.726 2°43.831 12.3923 3.029614 25.325579 -3.020363
2011-11-18 08:35:45 51°24.74 2°43.834 12.3766 3.02227 25.245762 -3.020363
2011-11-18 08:36:44 51°24.76 2°43.834 12.3931 3.013789 25.156143 -3.020363
2011-11-18 08:37:45 51°24.785 2°43.837 12.3711 3.039646 25.396106 -3.020363
2011-11-18 08:38:45 51°24.806 2°43.838 12.3386 3.018547 25.220082 -3.020363
2011-11-18 08:39:45 51°24.815 2°43.815 12.352 3.039026 25.42924 -3.020363
2011-11-18 08:40:45 51°24.805 2°43.779 12.356 3.047921 25.504396 -3.020363
2011-11-18 08:41:45 51°24.789 2°43.739 12.3464 3.084848 25.844497 -3.020363
2011-11-18 08:42:45 51°24.785 2°43.715 12.3509 3.014203 25.197299 -3.020363
2011-11-18 08:43:45 51°24.789 2°43.696 12.3675 3.000138 25.059619 -3.020363
2011-11-18 08:44:45 51°24.801 2°43.682 12.3638 2.997035 25.028179 -3.020363
2011-11-18 08:45:45 51°24.816 2°43.668 12.3791 2.987313 24.93809 -3.020363
2011-11-18 08:46:44 51°24.832 2°43.652 12.3636 3.042336 25.446433 -3.020363
2011-11-18 08:47:45 51°24.824 2°43.611 12.3525 3.031683 25.351024 -3.020363
2011-11-18 08:48:46 51°24.794 2°43.608 12.3562 3.015651 25.204895 -3.020363
2011-11-18 08:49:45 51°24.759 2°43.634 12.3833 2.989692 24.963978 -3.020363
2011-11-18 08:50:46 51°24.741 2°43.64 12.3737 2.984935 24.91733 -3.020363
2011-11-18 08:51:46 51°24.746 2°43.638 12.3743 3.052265 25.53985 -3.020363
2011-11-18 08:52:46 51°24.775 2°43.648 12.3471 2.999931 25.057141 -3.020363
2011-11-18 08:53:47 51°24.804 2°43.666 12.3488 3.008929 25.144069 -3.020363
2011-11-18 08:54:46 51°24.825 2°43.682 12.3619 3.021236 25.259857 -3.020363
2011-11-18 08:55:45 51°24.843 2°43.694 12.3522 2.989382 24.971383 -3.020363
2011-11-18 08:56:45 51°24.859 2°43.702 12.357 2.999414 25.063821 -3.020363
2011-11-18 08:57:47 51°24.875 2°43.702 12.3418 2.99869 25.056576 -3.020363
2011-11-18 08:58:48 51°24.875 2°43.64 12.3371 2.997242 25.046665 -3.020363
2011-11-18 08:59:45 51°24.827 2°43.62 12.3367 2.99838 25.059441 -3.020363
2011-11-18 09:00:45 51°24.785 2°43.633 12.3452 3.040992 25.44913 -3.020363
2011-11-18 09:01:46 51°24.761 2°43.627 12.3484 3.034165 25.38668 -3.020363
2011-11-18 09:02:45 51°24.755 2°43.604 12.3442 2.983384 24.917839 -3.020363
2011-11-18 09:03:46 51°24.76 2°43.582 12.3346 2.982866 24.911938 -3.020363
2011-11-18 09:04:45 51°24.772 2°43.564 12.3401 2.99145 24.995006 -3.020363
2011-11-18 09:05:45 51°24.788 2°43.55 12.3355 3.040888 25.452827 -3.020363
2011-11-18 09:06:45 51°24.805 2°43.542 12.3323 3.000552 25.078889 -3.020363
2011-11-18 09:07:45 51°24.816 2°43.507 12.3342 3.020616 25.267983 -3.020363
2011-11-18 09:08:46 51°24.804 2°43.463 12.3369 3.008205 25.153478 -3.020363
2011-11-18 09:09:45 51°24.779 2°43.462 12.3288 2.997449 25.05544 -3.020363
2011-11-18 09:10:46 51°24.768 2°43.518 12.3301 3.017927 25.243745 -3.020363
2011-11-18 09:11:45 51°24.763 2°43.566 12.3324 3.020202 25.264165 -3.020363
2011-11-18 09:12:44 51°24.763 2°43.595 12.3322 2.983384 24.922963 -3.020363
2011-11-18 09:13:45 51°24.771 2°43.614 12.332 3.003654 25.109788 -3.020363
2011-11-18 09:14:45 51°24.784 2°43.623 12.3269 2.985452 24.944868 -3.020363
2011-11-18 09:15:45 51°24.801 2°43.628 12.325 2.984004 24.932667 -3.020363
2011-11-18 09:16:45 51°24.818 2°43.627 12.3247 3.037165 25.422505 -3.020363
2011-11-18 09:17:45 51°24.836 2°43.627 12.3245 2.986486 24.955538 -3.020363
2011-11-18 09:18:45 51°24.854 2°43.646 12.3244 3.00231 25.102553 -3.020363
2011-11-18 09:19:46 51°24.842 2°43.701 12.3264 2.984315 24.937235 -3.020363
2011-11-18 09:20:45 51°24.819 2°43.715 12.3294 2.972215 24.823498 -3.020363
2011-11-18 09:21:46 51°24.806 2°43.71 12.3309 2.999931 25.077179 -3.020363
2011-11-18 09:22:45 51°24.807 2°43.696 12.331 2.973456 24.833224 -3.020363
2011-11-18 09:23:46 51°24.812 2°43.671 12.3279 2.993933 25.023024 -3.020363
2011-11-18 09:24:45 51°24.8 2°43.642 12.3273 2.987521 24.966209 -3.020363
2011-11-18 09:25:45 51°24.786 2°43.632 12.3236 2.985556 24.949241 -3.020363
2011-11-18 09:26:46 51°24.772 2°43.642 12.3206 2.986797 24.961819 -3.020363
2011-11-18 09:27:45 51°24.77 2°43.649 12.321 3.004378 25.124501 -3.020363
2011-11-18 09:28:46 51°24.778 2°43.652 12.3166 2.972732 24.832799 -3.020363
2011-11-18 09:29:45 51°24.794 2°43.649 12.319 2.985349 24.950756 -3.020363
2011-11-18 09:30:44 51°24.813 2°43.636 12.3131 3.037785 25.433468 -3.020363
2011-11-18 09:31:45 51°24.83 2°43.621 12.3127 2.987624 24.974011 -3.020363
2011-11-18 09:32:45 51°24.838 2°43.659 12.3129 3.018341 25.257375 -3.020363
2011-11-18 09:33:44 51°24.824 2°43.699 12.3166 2.98235 24.926534 -3.020363
2011-11-18 09:34:46 51°24.809 2°43.711 12.3178 3.008205 25.162678 -3.020363
2011-11-18 09:35:45 51°24.807 2°43.709 12.3183 2.968388 24.795629 -3.020363
2011-11-18 09:36:45 51°24.814 2°43.705 12.3191 2.97418 24.848407 -3.020363
2011-11-18 09:37:46 51°24.827 2°43.699 12.3187 2.987624 24.972299 -3.020363
2011-11-18 09:38:45 51°24.833 2°43.688 12.3175 2.97118 24.82078 -3.020363
2011-11-18 09:39:46 51°24.826 2°43.666 12.3159 2.947395 24.604063 -3.020363
2011-11-18 09:40:45 51°24.807 2°43.647 12.3177 2.947292 24.600862 -3.020363
2011-11-18 09:41:45 51°24.783 2°43.643 12.3215 2.946465 24.592689 -3.020363
2011-11-18 09:42:45 51°24.786 2°43.637 12.3218 2.944603 24.575002 -3.020363
2011-11-18 09:43:46 51°24.808 2°43.623 12.3207 2.956392 24.682354 -3.020363
2011-11-18 09:44:44 51°24.832 2°43.605 12.3155 2.954634 24.667866 -3.020363
2011-11-18 09:45:45 51°24.831 2°43.629 12.3168 2.968078 24.792772 -3.020363
2011-11-18 09:46:46 51°24.819 2°43.647 12.3152 2.945017 24.581055 -3.020363
2011-11-18 09:47:45 51°24.807 2°43.654 12.3169 2.961666 24.734294 -3.020363
2011-11-18 09:48:45 51°24.804 2°43.653 12.3146 2.9445 24.576859 -3.020363
2011-11-18 09:49:46 51°24.809 2°43.65 12.312 2.941604 24.550782 -3.020363
2011-11-18 09:50:45 51°24.819 2°43.648 12.3129 2.941501 24.550392 -3.020363
2011-11-18 09:51:45 51°24.83 2°43.647 12.3174 2.94481 24.579713 -3.020363
2011-11-18 09:52:45 51°24.829 2°43.669 12.3165 2.968492 24.796582 -3.020363
2011-11-18 09:53:46 51°24.802 2°43.687 12.3121 2.976351 24.87012 -3.020363
2011-11-18 09:54:45 51°24.79 2°43.683 12.3136 2.952256 24.649919 -3.020363
2011-11-18 09:55:45 51°24.792 2°43.678 12.3086 2.965493 24.773492 -3.020363
2011-11-18 09:56:45 51°24.803 2°43.668 12.3059 2.953703 24.666065 -3.020363
2011-11-18 09:57:45 51°24.82 2°43.658 12.3017 2.986073 24.965989 -3.020363
2011-11-18 09:58:45 51°24.835 2°43.644 12.3023 2.948326 24.621632 -3.020363
2011-11-18 09:59:45 51°24.823 2°43.619 12.3059 2.966113 24.784874 -3.020363
2011-11-18 10:00:45 51°24.8 2°43.625 12.3064 2.962287 24.746795 -3.020363
2011-11-18 10:01:45 51°24.791 2°43.639 12.3078 2.960425 24.730217 -3.020363
2011-11-18 10:02:45 51°24.795 2°43.645 12.3076 2.941915 24.559812 -3.020363
2011-11-18 10:03:45 51°24.804 2°43.656 12.3029 2.93964 24.539439 -3.020363
2011-11-18 10:04:46 51°24.796 2°43.685 12.3018 2.975938 24.874269 -3.020363
2011-11-18 10:05:45 51°24.785 2°43.696 12.2986 2.928885 24.443864 -3.020363
2011-11-18 10:06:45 51°24.786 2°43.694 12.2979 2.919992 24.362086 -3.020363
2011-11-18 10:07:45 51°24.795 2°43.688 12.2983 2.962287 24.751323 -3.020363
2011-11-18 10:08:45 51°24.811 2°43.678 12.2943 2.92113 24.374216 -3.020363
2011-11-18 10:09:45 51°24.828 2°43.665 12.2952 2.929816 24.454661 -3.020363
2011-11-18 10:10:45 51°24.831 2°43.702 12.2886 2.918958 24.353136 -3.020363
2011-11-18 10:11:45 51°24.804 2°43.734 12.2865 2.919785 24.365199 -3.020363
2011-11-18 10:12:45 51°24.784 2°43.728 12.2856 2.91627 24.335654 -3.020363
2011-11-18 10:13:45 51°24.79 2°43.713 12.2849 2.91658 24.34129 -3.020363
2011-11-18 10:14:45 51°24.807 2°43.707 12.2787 2.914822 24.326238 -3.020363
2011-11-18 10:15:45 51°24.821 2°43.701 12.2749 2.918028 24.359063 -3.020363
2011-11-18 10:16:45 51°24.831 2°43.668 12.2712 2.914305 24.326492 -3.020363
2011-11-18 10:17:45 51°24.823 2°43.617 12.274 2.920303 24.381665 -3.020363
2011-11-18 10:18:45 51°24.8 2°43.584 12.2758 2.908411 24.272287 -3.020363
2011-11-18 10:19:45 51°24.782 2°43.585 12.2825 2.934159 24.50751 -3.020363
2011-11-18 10:20:46 51°24.779 2°43.596 12.2749 2.957944 24.724887 -3.020363
2011-11-18 10:21:45 51°24.784 2°43.602 12.2724 2.950912 24.661789 -3.020363
2011-11-18 10:22:45 51°24.793 2°43.602 12.2729 2.935814 24.523864 -3.020363
2011-11-18 10:23:45 51°24.806 2°43.599 12.2711 2.930436 24.474363 -3.020363
2011-11-18 10:24:45 51°24.809 2°43.621 12.2678 2.918441 24.365098 -3.020363
2011-11-18 10:25:45 51°24.797 2°43.646 12.2696 2.944293 24.603639 -3.020363
2011-11-18 10:26:44 51°24.794 2°43.657 12.2692 2.935814 24.526109 -3.020363
2011-11-18 10:27:45 51°24.792 2°43.666 12.2651 2.915029 24.334821 -3.020363
2011-11-18 10:28:45 51°24.797 2°43.667 12.2623 2.906446 24.259218 -3.020363
2011-11-18 10:29:45 51°24.809 2°43.662 12.2628 2.914822 24.335146 -3.020363
2011-11-18 10:30:45 51°24.823 2°43.651 12.263 2.936227 24.533849 -3.020363
2011-11-18 10:31:45 51°24.836 2°43.64 12.2574 2.92661 24.445302 -3.020363
2011-11-18 10:32:45 51°24.848 2°43.644 12.2661 2.942225 24.590781 -3.020363
2011-11-18 10:33:45 51°24.854 2°43.661 12.2606 2.931264 24.489824 -3.020363
2011-11-18 10:34:45 51°24.843 2°43.691 12.2585 2.923508 24.417866 -3.020363
2011-11-18 10:35:44 51°24.828 2°43.7 12.2644 2.911927 24.311294 -3.020363
2011-11-18 10:36:44 51°24.82 2°43.7 12.264 2.980489 24.941881 -3.020363
2011-11-18 10:37:45 51°24.819 2°43.697 12.2602 2.912857 24.320969 -3.020363
2011-11-18 10:38:45 51°24.818 2°43.696 12.252 2.910272 24.2983 -3.020363
2011-11-18 10:39:45 51°24.811 2°43.693 12.2509 2.922681 24.415282 -3.020363
2011-11-18 10:40:45 51°24.808 2°43.683 12.2519 2.932815 24.509157 -3.020363
2011-11-18 10:41:45 51°24.808 2°43.67 12.2535 2.93902 24.566875 -3.020363
2011-11-18 10:42:45 51°24.807 2°43.653 12.2455 2.906963 24.270639 -3.020363
2011-11-18 10:43:45 51°24.807 2°43.623 12.2469 2.921027 24.403404 -3.020363
2011-11-18 10:44:45 51°24.809 2°43.584 12.2495 2.984315 24.987494 -3.020363
2011-11-18 10:45:45 51°24.808 2°43.535 12.2509 2.916373 24.36001 -3.020363
2011-11-18 10:46:45 51°24.803 2°43.485 12.2512 2.906653 24.269453 -3.020363
2011-11-18 10:47:45 51°24.796 2°43.434 12.2525 2.907998 24.280708 -3.020363
2011-11-18 10:48:45 51°24.795 2°43.391 12.2545 2.906963 24.270084 -3.020363
2011-11-18 10:49:45 51°24.799 2°43.356 12.2547 2.908308 24.283006 -3.020363
2011-11-18 10:50:45 51°24.8 2°43.31 12.2563 2.903965 24.241946 -3.020363
2011-11-18 10:51:46 51°24.792 2°43.232 12.2633 2.895382 24.162472 -3.020363
2011-11-18 10:52:45 51°24.806 2°43.147 12.2728 2.898174 24.186479 -3.020363
2011-11-18 10:53:45 51°24.844 2°43.079 12.2778 2.899622 24.193697 -3.020363
2011-11-18 10:54:45 51°24.882 2°43.033 12.2832 2.92568 24.429466 -3.020363
2011-11-18 10:55:45 51°24.918 2°42.999 12.2965 2.944397 24.596148 -3.020363
2011-11-18 10:56:45 51°24.96 2°43.007 12.313 2.879355 23.992113 -3.020363
2011-11-18 10:57:46 51°24.963 2°43.074 12.3336 2.885869 24.033223 -3.020363
2011-11-18 10:58:45 51°24.918 2°43.146 12.3291 2.943569 24.560999 -3.020363
2011-11-18 10:59:44 51°24.849 2°43.278 12.3192 2.884318 24.016801 -3.020363
2011-11-18 11:00:45 51°24.77 2°43.426 12.2991 2.880699 23.989639 -3.020363
2011-11-18 11:01:45 51°24.692 2°43.564 12.2786 2.90262 24.204647 -3.020363
2011-11-18 11:02:45 51°24.657 2°43.663 12.26 2.912754 24.311113 -3.020363
2011-11-18 11:03:45 51°24.656 2°43.711 12.2493 2.893728 24.144498 -3.020363
2011-11-18 11:04:45 51°24.663 2°43.711 12.2458 2.890936 24.124913 -3.020363
2011-11-18 11:05:45 51°24.67 2°43.711 12.2483 2.895383 24.168558 -3.020363
2011-11-18 11:06:46 51°24.678 2°43.703 12.2397 2.891453 24.134086 -3.020363
2011-11-18 11:07:45 51°24.686 2°43.686 12.2408 2.888558 24.109124 -3.020363
2011-11-18 11:08:45 51°24.691 2°43.687 12.2386 2.896106 24.179091 -3.020363
2011-11-18 11:09:46 51°24.67 2°43.722 12.2383 2.905309 24.261531 -3.020363
2011-11-18 11:10:45 51°24.666 2°43.719 12.2382 2.90686 24.279695 -3.020363
2011-11-18 11:11:45 51°24.675 2°43.706 12.2351 2.89621 24.182257 -3.020363
2011-11-18 11:12:45 51°24.684 2°43.686 12.2319 2.899829 24.218325 -3.020363
2011-11-18 11:13:45 51°24.693 2°43.665 12.231 2.879149 24.025932 -3.020363
2011-11-18 11:14:45 51°24.701 2°43.645 12.232 2.927541 24.470115 -3.020363
2011-11-18 11:15:45 51°24.706 2°43.662 12.2359 2.898278 24.199064 -3.020363
2011-11-18 11:16:46 51°24.692 2°43.693 12.2374 2.873255 23.967375 -3.020363
2011-11-18 11:17:45 51°24.678 2°43.723 12.2378 2.86364 23.877957 -3.020363
2011-11-18 11:18:45 51°24.672 2°43.744 12.2353 2.858366 23.828996 -3.020363
2011-11-18 11:19:45 51°24.674 2°43.744 12.2406 2.855368 23.802016 -3.020363
2011-11-18 11:20:45 51°24.679 2°43.735 12.236 2.862295 23.863975 -3.020363
2011-11-18 11:21:45 51°24.686 2°43.722 12.2354 2.856609 23.813951 -3.020363
2011-11-18 11:22:44 51°24.687 2°43.737 12.2339 2.862606 23.868463 -3.020363
2011-11-18 11:23:45 51°24.67 2°43.761 12.2335 2.909755 24.301889 -3.020363
2011-11-18 11:24:45 51°24.66 2°43.764 12.2346 2.862916 23.871311 -3.020363
2011-11-18 11:25:45 51°24.664 2°43.755 12.2403 2.857229 23.819646 -3.020363
2011-11-18 11:26:45 51°24.67 2°43.745 12.2372 2.857126 23.819242 -3.020363
2011-11-18 11:27:45 51°24.675 2°43.738 12.238 2.854644 23.797008 -3.020363
2011-11-18 11:28:48 51°24.678 2°43.695 12.2359 2.872221 23.958973 -3.020363
2011-11-18 11:29:48 51°24.685 2°43.685 12.2375 2.87553 23.989923 -3.020363
2011-11-18 11:30:46 51°24.692 2°43.691 12.2393 2.868086 23.919336 -3.020363
2011-11-18 11:31:45 51°24.727 2°43.708 12.2359 2.860745 23.851921 -3.020363
2011-11-18 11:32:44 51°24.736 2°43.689 12.2393 2.865707 23.894759 -3.020363
2011-11-18 11:33:49 51°24.696 2°43.647 12.2413 2.850819 23.75591 -3.020363
2011-11-18 11:34:48 51°24.633 2°43.632 12.2423 2.854437 23.788572 -3.020363
2011-11-18 11:35:48 51°24.592 2°43.636 12.2438 2.879562 24.02038 -3.020363
2011-11-18 11:36:46 51°24.609 2°43.638 12.2402 2.860434 23.843067 -3.020363
2011-11-18 11:37:45 51°24.609 2°43.698 12.2459 2.895382 24.159153 -3.020363
2011-11-18 11:38:45 51°24.575 2°43.759 12.2381 2.880493 24.02563 -3.020363
2011-11-18 11:39:45 51°24.605 2°43.806 12.2159 2.856816 23.810942 -3.020363
2011-11-18 11:40:45 51°24.622 2°43.789 12.2278 2.854231 23.784496 -3.020363
2011-11-18 11:41:45 51°24.636 2°43.761 12.239 2.868499 23.912183 -3.020363
2011-11-18 11:42:45 51°24.649 2°43.729 12.2395 2.857539 23.809953 -3.020363
2011-11-18 11:43:45 51°24.658 2°43.696 12.2451 2.854748 23.78434 -3.020363
2011-11-18 11:44:44 51°24.655 2°43.696 12.2515 2.866121 23.885431 -3.020363
2011-11-18 11:45:45 51°24.648 2°43.702 12.2408 2.896933 24.168432 -3.020363
2011-11-18 11:46:44 51°24.659 2°43.652 12.2415 2.864053 23.868638 -3.020363
2011-11-18 11:47:45 51°24.619 2°43.549 12.2456 2.908618 24.276966 -3.020363
2011-11-18 11:48:45 51°24.54 2°43.592 12.2448 2.871704 23.937777 -3.020363
2011-11-18 11:49:45 51°24.481 2°43.719 12.229 2.874909 23.964464 -3.020363
2011-11-18 11:50:45 51°24.501 2°43.795 12.2194 2.874599 23.97643 -3.020363
2011-11-18 11:51:45 51°24.542 2°43.855 12.2165 2.882975 24.053937 -3.020363
2011-11-18 11:52:45 51°24.583 2°43.89 12.2225 2.901793 24.229186 -3.020363
2011-11-18 11:53:45 51°24.604 2°43.862 12.2213 2.877598 24.005078 -3.020363
2011-11-18 11:54:46 51°24.627 2°43.829 12.2254 2.868602 23.921893 -3.020363
2011-11-18 11:55:45 51°24.645 2°43.796 12.2281 2.879252 24.018629 -3.020363
2011-11-18 11:56:45 51°24.659 2°43.762 12.2333 2.882458 24.047533 -3.020363
2011-11-18 11:57:46 51°24.666 2°43.73 12.2367 2.877598 24.000132 -3.020363
2011-11-18 11:58:45 51°24.67 2°43.702 12.2378 2.873048 23.957246 -3.020363
2011-11-18 11:59:45 51°24.673 2°43.674 12.2451 2.873462 23.95885 -3.020363
2011-11-18 12:00:45 51°24.677 2°43.648 12.2329 2.866121 23.893633 -3.020363
2011-11-18 12:01:45 51°24.67 2°43.592 12.2404 2.914202 24.336123 -3.020363
2011-11-18 12:02:45 51°24.623 2°43.535 12.2479 2.879459 24.012282 -3.020363
2011-11-18 12:03:45 51°24.589 2°43.577 12.2484 2.882561 24.037476 -3.020363
2011-11-18 12:04:45 51°24.583 2°43.677 12.2426 2.879562 24.007737 -3.020363
2011-11-18 12:05:45 51°24.548 2°43.766 12.2152 2.884732 24.057972 -3.020363
2011-11-18 12:06:45 51°24.547 2°43.824 12.1516 2.877081 24.010775 -3.020363
2011-11-18 12:07:45 51°24.573 2°43.865 12.137 2.872636 24.003461 -3.020363
2011-11-18 12:08:45 51°24.609 2°43.89 12.1543 2.881838 24.092041 -3.020363
2011-11-18 12:09:45 51°24.619 2°43.883 12.1676 2.892798 24.178013 -3.020363
2011-11-18 12:10:45 51°24.633 2°43.877 12.1689 2.878219 24.037202 -3.020363
2011-11-18 12:11:45 51°24.672 2°43.849 12.1689 2.86974 23.963071 -3.020363
2011-11-18 12:12:45 51°24.673 2°43.829 12.1678 2.87553 24.013025 -3.020363
2011-11-18 12:13:45 51°24.671 2°43.811 12.1675 2.879356 24.049319 -3.020363
2011-11-18 12:14:45 51°24.671 2°43.791 12.1682 2.875634 24.01728 -3.020363
2011-11-18 12:15:45 51°24.674 2°43.766 12.1805 2.867569 23.943652 -3.020363
2011-11-18 12:16:45 51°24.677 2°43.742 12.1953 2.877081 24.025088 -3.020363
2011-11-18 12:17:45 51°24.676 2°43.728 12.18 2.880287 24.049058 -3.020363
2011-11-18 12:18:45 51°24.677 2°43.717 12.1811 2.872325 23.982995 -3.020363
2011-11-18 12:19:45 51°24.679 2°43.704 12.1757 2.880907 24.063037 -3.020363
2011-11-18 12:20:45 51°24.681 2°43.689 12.1745 2.881217 24.069755 -3.020363
2011-11-18 12:21:45 51°24.684 2°43.671 12.1751 2.870774 23.97258 -3.020363
2011-11-18 12:22:45 51°24.687 2°43.649 12.1764 2.876978 24.029646 -3.020363
2011-11-18 12:23:45 51°24.688 2°43.625 12.1773 2.872222 23.984794 -3.020363
2011-11-18 12:24:45 51°24.691 2°43.599 12.1801 2.881838 24.073807 -3.020363
2011-11-18 12:25:45 51°24.694 2°43.574 12.182 2.889903 24.146372 -3.020363
2011-11-18 12:26:45 51°24.684 2°43.507 12.1995 2.880287 24.056778 -3.020363
2011-11-18 12:27:46 51°24.64 2°43.45 12.2234 2.885353 24.090138 -3.020363
2011-11-18 12:28:45 51°24.581 2°43.449 12.2104 2.918441 24.384073 -3.020363
2011-11-18 12:29:44 51°24.53 2°43.504 12.2114 2.8868 24.097378 -3.020363
2011-11-18 12:30:45 51°24.509 2°43.595 12.1751 2.873152 23.974662 -3.020363
2011-11-18 12:31:45 51°24.512 2°43.694 12.118 2.879253 24.054988 -3.020363
2011-11-18 12:32:45 51°24.508 2°43.797 12.0903 2.874497 24.042109 -3.020363
2011-11-18 12:33:45 51°24.522 2°43.885 12.0498 2.877392 24.086489 -3.020363
2011-11-18 12:34:45 51°24.574 2°43.876 12.0251 2.862297 23.973255 -3.020363
2011-11-18 12:35:45 51°24.641 2°43.829 12.0531 2.893523 24.26708 -3.020363
2011-11-18 12:36:45 51°24.675 2°43.795 12.0576 2.864468 23.983899 -3.020363
2011-11-18 12:37:45 51°24.674 2°43.773 12.0722 2.860436 23.94121 -3.020363
2011-11-18 12:38:45 51°24.675 2°43.745 12.074 2.855059 23.883419 -3.020363
2011-11-18 12:39:45 51°24.673 2°43.753 12.0702 2.868707 24.006423 -3.020363
2011-11-18 12:40:45 51°24.67 2°43.751 12.0681 2.871085 24.033315 -3.020363
2011-11-18 12:41:46 51°24.671 2°43.735 12.0672 2.870155 24.024736 -3.020363
2011-11-18 12:42:45 51°24.673 2°43.716 12.0693 2.861056 23.94032 -3.020363
2011-11-18 12:43:45 51°24.675 2°43.694 12.0707 2.864882 23.975025 -3.020363
2011-11-18 12:44:45 51°24.679 2°43.668 12.073 2.866846 23.993132 -3.020363
2011-11-18 12:45:45 51°24.682 2°43.643 12.0715 2.865295 23.978285 -3.020363
2011-11-18 12:46:45 51°24.687 2°43.647 12.071 2.87367 24.056596 -3.020363
2011-11-18 12:47:45 51°24.679 2°43.678 12.0749 2.865709 23.982649 -3.020363
2011-11-18 12:48:45 51°24.667 2°43.713 12.0713 2.865605 23.980593 -3.020363
2011-11-18 12:49:45 51°24.674 2°43.736 12.0574 2.863331 23.965691 -3.020363
2011-11-18 12:50:45 51°24.675 2°43.741 12.0546 2.875635 24.085789 -3.020363
2011-11-18 12:51:45 51°24.675 2°43.731 12.0601 2.871085 24.046035 -3.020363
2011-11-18 12:52:45 51°24.676 2°43.717 12.0637 2.866226 23.999003 -3.020363
2011-11-18 12:53:45 51°24.678 2°43.7 12.062 2.87243 24.055113 -3.020363
2011-11-18 12:54:45 51°24.681 2°43.68 12.0631 2.89466 24.260272 -3.020363
2011-11-18 12:55:45 51°24.683 2°43.657 12.0683 2.896521 24.276341 -3.020363
2011-11-18 12:56:45 51°24.686 2°43.636 12.0674 2.903139 24.335217 -3.020363
2011-11-18 12:57:44 51°24.689 2°43.614 12.0679 2.894453 24.255014 -3.020363
2011-11-18 12:58:45 51°24.693 2°43.594 12.0728 2.89011 24.213811 -3.020363
2011-11-18 12:59:44 51°24.696 2°43.573 12.075 2.896728 24.272108 -3.020363
2011-11-18 13:00:45 51°24.699 2°43.552 12.0814 2.897038 24.273296 -3.020363
2011-11-18 13:01:44 51°24.7 2°43.528 12.0851 2.897245 24.27074 -3.020363
2011-11-18 13:02:45 51°24.702 2°43.504 12.0861 2.896004 24.256499 -3.020363
2011-11-18 13:03:45 51°24.703 2°43.489 12.096 2.894143 24.238768 -3.020363
2011-11-18 13:04:45 51°24.694 2°43.515 12.0926 2.893316 24.225009 -3.020363
2011-11-18 13:05:45 51°24.654 2°43.578 12.092 2.897452 24.265953 -3.020363
2011-11-18 13:06:45 51°24.573 2°43.722 12.0478 2.907482 24.361321 -3.020363
2011-11-18 13:07:45 51°24.457 2°43.874 11.9539 2.894454 24.279592 -3.020363
2011-11-18 13:08:45 51°24.344 2°44.037 11.9011 2.902416 24.40829 -3.020363
2011-11-18 13:09:45 51°24.237 2°44.273 11.8941 2.905105 24.460319 -3.020363
2011-11-18 13:10:45 51°24.107 2°44.511 11.8971 2.874499 24.175453 -3.020363
2011-11-18 13:11:45 51°23.959 2°44.726 11.8779 2.875636 24.190464 -3.020363
2011-11-18 13:12:45 51°23.816 2°44.948 11.8395 2.8867 24.30706 -3.020363
2011-11-18 13:13:45 51°23.674 2°45.174 11.8055 2.858887 24.0676 -3.020363
2011-11-18 13:14:45 51°23.534 2°45.407 11.7364 2.863023 24.136696 -3.020363
2011-11-18 13:15:45 51°23.39 2°45.635 11.6995 2.864058 24.184444 -3.020363
2011-11-18 13:16:45 51°23.243 2°45.858 11.6495 2.868814 24.255174 -3.020363
2011-11-18 13:17:45 51°23.106 2°46.095 11.5795 2.849997 24.114236 -3.020363
2011-11-18 13:18:45 51°22.968 2°46.33 11.5053 2.843277 24.094303 -3.020363
2011-11-18 13:19:44 51°22.829 2°46.55 11.398 2.836868 24.085119 -3.020363
2011-11-18 13:20:45 51°22.735 2°46.673 11.3114 2.839764 24.184089 -3.020363
2011-11-18 13:21:45 51°22.641 2°46.727 11.1786 2.832527 24.167893 -3.020363
2011-11-18 13:22:45 51°22.489 2°46.739 11.1148 2.827152 24.202317 -3.020363
2011-11-18 13:23:45 51°22.299 2°46.753 11.1061 2.82157 24.186297 -3.020363
2011-11-18 13:24:45 51°22.102 2°46.818 11.14 2.806166 24.040403 -3.020363
2011-11-18 13:25:45 51°21.909 2°46.927 11.1901 2.819295 24.141967 -3.020363
2011-11-18 13:26:45 51°21.729 2°47.07 11.0818 2.816917 24.096754 -3.020363
2011-11-18 13:27:45 51°21.572 2°47.261 11.023 2.82064 24.209623 -3.020363
2011-11-18 13:28:45 51°21.411 2°47.443 11.0049 2.82643 24.286229 -3.020363
2011-11-18 13:29:45 51°21.252 2°47.626 10.9737 2.808545 24.138291 -3.020363
2011-11-18 13:30:45 51°21.085 2°47.799 10.9586 2.795105 24.022593 -3.020363
2011-11-18 13:31:45 51°20.922 2°47.98 10.9527 2.801412 24.093142 -3.020363
2011-11-18 13:32:45 51°20.753 2°48.151 10.9514 2.799241 24.076027 -3.020363
2011-11-18 13:33:45 51°20.588 2°48.331 10.9442 2.80596 24.141379 -3.020363
2011-11-18 13:34:45 51°20.425 2°48.517 10.9525 2.789006 23.985434 -3.020363
2011-11-18 13:35:45 51°20.262 2°48.702 10.9737 2.792314 24.007036 -3.020363
2011-11-18 13:36:45 51°20.093 2°48.874 10.8596 2.787145 23.963829 -3.020363
2011-11-18 13:37:45 51°19.927 2°49.052 10.8537 2.787766 24.026879 -3.020363
2011-11-18 13:38:45 51°19.758 2°49.225 10.8849 2.788076 24.026955 -3.020363
2011-11-18 13:39:45 51°19.598 2°49.414 10.9978 2.79645 24.074808 -3.020363
2011-11-18 13:40:45 51°19.447 2°49.622 11.0269 2.793244 23.986173 -3.020363
2011-11-18 13:41:45 51°19.295 2°49.828 11.0068 2.797896 24.019306 -3.020363
2011-11-18 13:42:45 51°19.134 2°50.016 10.9782 2.799654 24.053619 -3.020363
2011-11-18 13:43:45 51°18.978 2°50.221 10.9399 2.819814 24.258774 -3.020363
2011-11-18 13:44:45 51°18.818 2°50.418 10.8907 2.800998 24.117342 -3.020363
2011-11-18 13:45:45 51°18.662 2°50.625 10.9836 2.825914 24.355367 -3.020363
2011-11-18 13:46:45 51°18.498 2°50.822 11.0482 2.803996 24.092968 -3.020363
2011-11-18 13:47:45 51°18.344 2°51.031 11.0759 2.812783 24.142259 -3.020363
2011-11-18 13:48:45 51°18.186 2°51.239 11.1038 2.815367 24.148351 -3.020363
2011-11-18 13:49:45 51°18.027 2°51.442 11.1197 2.821777 24.191686 -3.020363
2011-11-18 13:50:45 51°17.864 2°51.64 11.1181 2.825292 24.217985 -3.020363
2011-11-18 13:51:45 51°17.698 2°51.831 11.1081 2.829117 24.254665 -3.020363
2011-11-18 13:52:45 51°17.519 2°51.993 11.087 2.842454 24.389844 -3.020363
2011-11-18 13:53:44 51°17.345 2°52.162 11.0506 2.834287 24.327663 -3.020363
2011-11-18 13:54:45 51°17.169 2°52.341 10.9932 2.845557 24.459719 -3.020363
2011-11-18 13:55:44 51°16.994 2°52.503 10.9384 2.830049 24.351689 -3.020363
2011-11-18 13:56:45 51°16.821 2°52.687 10.8832 2.823639 24.322774 -3.020363
2011-11-18 13:57:45 51°16.65 2°52.868 10.8176 2.822089 24.347494 -3.020363
2011-11-18 13:58:45 51°16.468 2°53.016 10.7734 2.80989 24.269859 -3.020363
2011-11-18 13:59:45 51°16.275 2°53.126 10.7444 2.798002 24.184586 -3.020363
2011-11-18 14:00:45 51°16.092 2°53.265 10.648 2.816611 24.384474 -3.020363
2011-11-18 14:01:45 51°15.9 2°53.374 10.5853 2.823745 24.515331 -3.020363
2011-11-18 14:02:44 51°15.718 2°53.507 10.5423 2.808031 24.404452 -3.020363
2011-11-18 14:03:44 51°15.545 2°53.674 10.5105 1.962335 14.690048 -3.020363
2011-11-18 14:04:44 51°15.386 2°53.869 10.472 1.289798 9.307751 -3.020363
2011-11-18 14:05:45 51°15.234 2°54.086 10.4466 0.971945 6.834233 -3.020363
2011-11-18 14:06:45 51°15.078 2°54.29 10.4626 0.794921 5.49579 -3.020363
2011-11-18 14:07:45 51°14.929 2°54.507 10.5104 0.643794 4.405074 -3.020363
2011-11-18 14:08:44 51°14.778 2°54.71 10.5212 0.559808 3.780652 -3.020363
2011-11-18 14:09:44 51°14.619 2°54.907 10.5423 0.509381 3.363585 -3.020363
2011-11-18 14:10:44 51°14.461 2°55.102 10.4766 0.462459 3.04881 -3.020363
2011-11-18 14:11:46 51°14.296 2°55.265 10.4182 0.432826 2.862209 -3.020363
2011-11-18 14:12:48 51°14.149 2°55.417 10.8529 0.404533 2.684763 -3.020363
2011-11-18 14:13:47 51°14.031 2°55.496 11.106 0.379224 2.524843 -3.020363
2011-11-18 14:14:45 51°13.933 2°55.557 12.8393 0.357929 2.375667 -3.020363
2011-11-18 14:15:45 51°13.841 2°55.619 13.0692 0.340646 2.253578 -3.020363
2011-11-18 14:16:45 51°13.764 2°55.696 13.1682 0.327067 2.158173 -3.020363
2011-11-18 14:17:45 51°13.718 2°55.779 13.2479 0.31606 2.081152 -3.020363
2011-11-18 14:18:48 51°13.679 2°55.863 13.3759 0.303099 1.990909 -3.020363
2011-11-18 14:19:46 51°13.648 2°55.935 13.4874 0.29199 1.913505 -3.020363
2011-11-18 14:20:45 51°13.633 2°56.005 13.571 0.282938 1.85033 -3.020363